createdAt,value
2019-01-04T19:11:13.759Z,-2.73
2019-01-04T19:16:10.769Z,-2.68
2019-01-04T19:21:07.695Z,-2.49
2019-01-04T19:26:04.778Z,-2.40
2019-01-04T19:31:01.716Z,-2.65
2019-01-04T19:35:58.598Z,-2.43
2019-01-04T19:40:55.528Z,-2.45
2019-01-04T19:45:52.422Z,-2.44
2019-01-04T19:50:49.335Z,-2.26
2019-01-04T19:55:46.268Z,-2.18
2019-01-04T20:00:43.213Z,-2.20
2019-01-04T20:05:53.671Z,-2.14
2019-01-04T20:11:41.811Z,-2.09
2019-01-04T20:16:43.838Z,-2.12
2019-01-04T20:21:59.174Z,-2.26
2019-01-04T20:27:07.022Z,-2.20
2019-01-04T20:32:11.573Z,-2.28
2019-01-04T20:37:08.360Z,-2.30
2019-01-04T20:42:23.697Z,-2.42
2019-01-04T20:47:20.758Z,-2.20
2019-01-04T20:52:35.188Z,-2.15
2019-01-04T20:57:37.982Z,-2.43
2019-01-04T21:02:53.119Z,-2.17
2019-01-04T21:07:51.805Z,-2.24
2019-01-04T21:12:56.526Z,-2.11
2019-01-04T21:17:59.169Z,-1.92
2019-01-04T21:22:57.968Z,-2.17
2019-01-04T21:27:57.252Z,-1.90
2019-01-04T21:33:07.908Z,-1.92
2019-01-04T21:38:06.626Z,-1.89
2019-01-04T21:43:11.394Z,-2.10
2019-01-04T21:48:10.080Z,-2.32
2019-01-04T21:53:25.419Z,-2.33
2019-01-04T21:58:40.714Z,-2.43
2019-01-04T22:03:45.454Z,-2.47
2019-01-04T22:08:44.133Z,-2.37
2019-01-04T22:13:48.743Z,-2.54
2019-01-04T22:18:45.536Z,-2.66
2019-01-04T22:23:50.348Z,-2.37
2019-01-04T22:29:05.081Z,-2.72
2019-01-04T22:34:13.565Z,-2.65
2019-01-04T22:39:27.788Z,-2.34
2019-01-04T22:44:33.848Z,-2.56
2019-01-04T22:49:35.289Z,-2.57
2019-01-04T22:54:50.450Z,-2.43
2019-01-04T22:59:56.304Z,-2.30
2019-01-04T23:04:55.804Z,-2.58
2019-01-04T23:09:54.714Z,-2.47
2019-01-04T23:15:10.005Z,-2.54
2019-01-04T23:20:25.424Z,-2.50
2019-01-04T23:25:22.221Z,-2.60
2019-01-04T23:30:24.608Z,-2.46
2019-01-04T23:35:24.243Z,-2.45
2019-01-04T23:40:21.051Z,-2.27
2019-01-04T23:45:38.288Z,-2.24
2019-01-04T23:50:37.281Z,-2.32
2019-01-04T23:55:48.155Z,-2.04
